Time;durP1;ratioP1;P1;durP2;ratioP2;P2;SDS_P1;SDS_P2;PMS_P1;PMS_P2;Temp;Humidity;BMP_temperature;BMP_pressure;BME280_temperature;BME280_humidity;BME280_pressure;Samples;Min_cycle;Max_cycle;Signal;HPM_P1;HPM_P2
2022/05/18 00:00:34;;;;;;;2.92;1.60;;;23.40;99.90;;;;;;5039757;28;20298;-79
2022/05/18 00:03:07;;;;;;;2.30;1.77;;;23.40;99.90;;;;;;5036859;28;20219;-79
2022/05/18 00:05:40;;;;;;;1.88;1.75;;;23.40;99.90;;;;;;5037645;28;20279;-79
2022/05/18 00:08:20;;;;;;;1.73;1.60;;;23.40;99.90;;;;;;5037295;28;20230;-79
2022/05/18 00:10:50;;;;;;;2.20;2.10;;;23.40;99.90;;;;;;5037016;28;20202;-79
2022/05/18 00:13:19;;;;;;;3.08;1.73;;;23.40;99.90;;;;;;5037219;28;20327;-79
2022/05/18 00:15:48;;;;;;;13.23;2.13;;;23.40;99.90;;;;;;5036246;28;20218;-79
2022/05/18 00:18:15;;;;;;;1.80;1.70;;;23.40;99.90;;;;;;5036023;28;20223;-79
2022/05/18 00:20:42;;;;;;;2.13;1.75;;;23.40;99.90;;;;;;5036098;28;20655;-79
2022/05/18 00:23:09;;;;;;;1.55;1.38;;;23.40;99.90;;;;;;5036828;28;20209;-79
2022/05/18 00:25:37;;;;;;;2.65;2.03;;;23.40;99.90;;;;;;5037874;28;20229;-79
2022/05/18 00:28:05;;;;;;;2.40;1.52;;;23.40;99.90;;;;;;5036485;28;20675;-79
2022/05/18 00:30:34;;;;;;;2.78;2.30;;;23.40;99.90;;;;;;5035822;28;20293;-79
2022/05/18 00:33:04;;;;;;;2.75;2.25;;;23.40;99.90;;;;;;5035731;28;20233;-79
2022/05/18 00:35:32;;;;;;;4.10;1.90;;;23.40;99.90;;;;;;5036427;28;20203;-79
2022/05/18 00:38:00;;;;;;;4.30;1.67;;;23.40;99.90;;;;;;5037047;28;20309;-79
2022/05/18 00:40:27;;;;;;;1.77;1.67;;;23.40;99.90;;;;;;5038381;28;20295;-79
2022/05/18 00:42:54;;;;;;;3.03;1.77;;;23.40;99.90;;;;;;5036629;28;20247;-79
2022/05/18 00:45:21;;;;;;;1.77;1.67;;;23.40;99.90;;;;;;5037956;28;20230;-79
2022/05/18 00:47:49;;;;;;;4.47;1.60;;;23.40;99.90;;;;;;5037666;28;20220;-79
2022/05/18 00:50:20;;;;;;;4.15;1.45;;;23.40;99.90;;;;;;5036959;28;20220;-79
2022/05/18 00:52:52;;;;;;;3.67;1.70;;;23.40;99.90;;;;;;5037610;28;20234;-79
2022/05/18 00:55:24;;;;;;;5.85;1.98;;;23.40;99.90;;;;;;5037767;28;20303;-79
2022/05/18 00:57:56;;;;;;;1.83;1.67;;;23.40;99.90;;;;;;5039669;28;20283;-79
2022/05/18 01:00:23;;;;;;;3.45;1.80;;;23.40;99.90;;;;;;5037315;28;20232;-79
2022/05/18 01:03:10;;;;;;;5.25;1.63;;;23.40;99.90;;;;;;5038452;28;20318;-79
2022/05/18 01:05:40;;;;;;;1.60;1.50;;;23.50;99.90;;;;;;5037269;28;20199;-79
2022/05/18 01:08:07;;;;;;;5.32;1.60;;;23.40;99.90;;;;;;5038204;28;20215;-80
2022/05/18 01:10:34;;;;;;;2.25;1.50;;;23.40;99.90;;;;;;5039277;28;20210;-80
2022/05/18 01:13:23;;;;;;;1.58;1.48;;;23.40;99.90;;;;;;5037544;28;20329;-80
2022/05/18 01:15:51;;;;;;;6.80;1.63;;;23.40;99.90;;;;;;5037178;28;20284;-80
2022/05/18 01:18:24;;;;;;;3.45;1.80;;;23.40;99.90;;;;;;5037126;28;20224;-80
2022/05/18 01:20:51;;;;;;;6.63;1.77;;;23.40;99.90;;;;;;5035801;28;20200;-80
2022/05/18 01:23:33;;;;;;;4.43;1.60;;;23.40;99.90;;;;;;5036202;28;20214;-80
2022/05/18 01:26:17;;;;;;;2.72;1.30;;;23.40;99.90;;;;;;5038975;28;20290;-80
2022/05/18 01:28:51;;;;;;;4.18;1.88;;;23.40;99.90;;;;;;5038530;28;20281;-80
2022/05/18 01:31:18;;;;;;;6.28;2.05;;;23.40;99.90;;;;;;5037494;28;20240;-79
2022/05/18 01:33:46;;;;;;;6.45;1.60;;;23.40;99.90;;;;;;5038666;28;20225;-79
2022/05/18 01:36:13;;;;;;;8.70;2.40;;;23.40;99.90;;;;;;5038500;28;20226;-79
2022/05/18 01:38:41;;;;;;;8.45;2.08;;;23.40;99.90;;;;;;5037478;28;20314;-79
2022/05/18 01:41:14;;;;;;;5.82;1.67;;;23.40;99.90;;;;;;5037200;28;20320;-79
2022/05/18 01:43:52;;;;;;;6.10;2.13;;;23.40;99.90;;;;;;5036405;28;20198;-79
2022/05/18 01:46:21;;;;;;;2.10;1.92;;;23.40;99.90;;;;;;5037247;28;20209;-79
2022/05/18 01:48:50;;;;;;;4.90;1.80;;;23.40;99.90;;;;;;5037347;28;20219;-79
2022/05/18 01:51:27;;;;;;;3.25;1.75;;;23.40;99.90;;;;;;5037263;28;20264;-79
2022/05/18 01:53:54;;;;;;;4.75;2.00;;;23.40;99.90;;;;;;5037054;28;20585;-79
2022/05/18 01:56:21;;;;;;;5.25;1.75;;;23.40;99.90;;;;;;5036683;28;20556;-79
2022/05/18 01:58:49;;;;;;;9.55;2.38;;;23.40;99.90;;;;;;5036299;28;20303;-79
2022/05/18 02:01:16;;;;;;;5.50;1.88;;;23.40;99.90;;;;;;5036266;28;20263;-79
2022/05/18 02:03:47;;;;;;;4.30;1.50;;;23.40;99.90;;;;;;5041286;28;20213;-79
2022/05/18 02:06:14;;;;;;;9.77;1.85;;;23.40;99.90;;;;;;5038925;28;20310;-79
2022/05/18 02:08:44;;;;;;;7.43;1.90;;;23.40;99.90;;;;;;5038904;28;20230;-80
2022/05/18 02:11:16;;;;;;;4.65;1.75;;;23.40;99.90;;;;;;5039798;28;20252;-80
2022/05/18 02:13:43;;;;;;;7.40;1.60;;;23.40;99.90;;;;;;5038548;28;20220;-80
2022/05/18 02:16:16;;;;;;;9.07;2.35;;;23.40;99.90;;;;;;5038345;28;20222;-80
2022/05/18 02:18:43;;;;;;;3.53;1.92;;;23.40;99.90;;;;;;5036910;28;20229;-80
2022/05/18 02:21:11;;;;;;;2.28;1.38;;;23.40;99.90;;;;;;5038138;28;20334;-80
2022/05/18 02:23:39;;;;;;;4.57;1.65;;;23.40;99.90;;;;;;5038929;28;20300;-80
2022/05/18 02:26:07;;;;;;;5.80;1.98;;;23.40;99.90;;;;;;5037623;28;20237;-80
2022/05/18 02:28:34;;;;;;;6.05;2.03;;;23.40;99.90;;;;;;5036945;28;20285;-80
2022/05/18 02:31:00;;;;;;;11.77;2.10;;;23.40;99.90;;;;;;5036403;28;20247;-80
2022/05/18 02:33:29;;;;;;;6.57;1.85;;;23.40;99.90;;;;;;5035729;28;20325;-80
2022/05/18 02:35:56;;;;;;;3.50;1.80;;;23.40;99.90;;;;;;5035596;28;20218;-80
2022/05/18 02:38:23;;;;;;;8.73;2.20;;;23.40;99.90;;;;;;5036349;28;20253;-80
2022/05/18 02:40:50;;;;;;;4.05;1.90;;;23.40;99.90;;;;;;5035699;28;20311;-80
2022/05/18 02:43:16;;;;;;;6.32;1.40;;;23.40;99.90;;;;;;5036331;28;20619;-80
2022/05/18 02:45:43;;;;;;;3.28;2.00;;;23.40;99.90;;;;;;5036034;28;20674;-80
2022/05/18 02:48:11;;;;;;;3.78;2.20;;;23.40;99.90;;;;;;5036890;28;20720;-80
2022/05/18 02:50:39;;;;;;;2.50;1.63;;;23.40;99.90;;;;;;5041087;28;20623;-80
2022/05/18 02:53:06;;;;;;;3.40;1.52;;;23.40;99.90;;;;;;5041539;28;20584;-80
2022/05/18 02:58:17;;;;;;;1.30;1.30;;;23.40;99.90;;;;;;5041581;28;20246;-80
2022/05/18 03:00:44;;;;;;;2.50;1.55;;;23.40;99.90;;;;;;5040919;28;20305;-80
2022/05/18 03:03:12;;;;;;;4.40;1.40;;;23.40;99.90;;;;;;5042468;28;20238;-80
2022/05/18 03:05:40;;;;;;;4.45;2.38;;;23.40;99.90;;;;;;5041733;28;20215;-80
2022/05/18 03:08:08;;;;;;;2.58;1.40;;;23.40;99.90;;;;;;5042700;28;20248;-80
2022/05/18 03:10:36;;;;;;;2.97;1.42;;;23.40;99.90;;;;;;5044741;28;20306;-80
2022/05/18 03:13:03;;;;;;;1.35;1.33;;;23.40;99.90;;;;;;5045684;28;20693;-80
2022/05/18 03:15:30;;;;;;;5.60;1.73;;;23.40;99.90;;;;;;5044364;28;20329;-80
2022/05/18 03:17:57;;;;;;;5.40;1.95;;;23.40;99.90;;;;;;5044846;28;20257;-80
2022/05/18 03:25:53;;;;;;;2.05;1.70;;;23.40;99.90;;;;;;5040876;28;20210;-80
2022/05/18 03:28:19;;;;;;;4.43;1.60;;;23.40;99.90;;;;;;5049269;28;20214;-80
2022/05/18 03:30:46;;;;;;;6.30;2.10;;;23.40;99.90;;;;;;5049746;28;20218;-80
2022/05/18 03:33:13;;;;;;;3.20;1.27;;;23.40;99.90;;;;;;5042600;28;20319;-80
2022/05/18 03:35:40;;;;;;;2.05;1.80;;;23.40;99.90;;;;;;5044700;28;20318;-80
2022/05/18 03:38:09;;;;;;;6.43;1.27;;;23.40;99.90;;;;;;5045153;28;20304;-80
2022/05/18 03:40:37;;;;;;;2.45;1.27;;;23.40;99.90;;;;;;5044505;28;20247;-80
2022/05/18 03:43:04;;;;;;;4.63;1.60;;;23.40;99.90;;;;;;5047795;28;20214;-80
2022/05/18 03:45:33;;;;;;;1.50;1.40;;;23.40;99.90;;;;;;5048986;28;20296;-80
2022/05/18 03:48:00;;;;;;;2.35;1.42;;;23.40;99.90;;;;;;5048261;28;20215;-80
2022/05/18 03:50:28;;;;;;;4.15;1.60;;;23.40;99.90;;;;;;5049477;28;20212;-81
2022/05/18 03:52:55;;;;;;;1.95;1.85;;;23.40;99.90;;;;;;5050724;28;20239;-80
2022/05/18 03:55:24;;;;;;;4.00;1.60;;;23.40;99.90;;;;;;5051403;28;20255;-80
2022/05/18 03:57:50;;;;;;;1.52;1.52;;;23.40;99.90;;;;;;5051806;28;20249;-80
2022/05/18 04:00:18;;;;;;;4.00;1.38;;;23.40;99.90;;;;;;5051063;28;20218;-80
2022/05/18 04:02:47;;;;;;;7.78;1.75;;;23.40;99.90;;;;;;5052116;28;20266;-80
2022/05/18 04:05:16;;;;;;;1.48;1.45;;;23.40;99.90;;;;;;5051796;28;20208;-80
2022/05/18 04:07:43;;;;;;;2.85;1.58;;;23.40;99.90;;;;;;5053164;28;20249;-80
2022/05/18 04:10:11;;;;;;;1.48;1.38;;;23.40;99.90;;;;;;5053407;28;20241;-80
2022/05/18 04:12:39;;;;;;;2.28;1.48;;;23.40;99.90;;;;;;5045275;28;20294;-82
2022/05/18 04:15:07;;;;;;;1.52;1.40;;;23.40;99.90;;;;;;5044361;28;20680;-81
2022/05/18 04:17:35;;;;;;;1.30;1.30;;;23.40;99.90;;;;;;5044498;28;20253;-82
2022/05/18 04:20:03;;;;;;;2.08;1.40;;;23.40;99.90;;;;;;5043926;28;20270;-81
2022/05/18 04:22:30;;;;;;;1.80;1.70;;;23.40;99.90;;;;;;5043385;28;20713;-81
2022/05/18 04:25:01;;;;;;;2.00;1.58;;;23.40;99.90;;;;;;5042520;28;20308;-82
2022/05/18 04:27:28;;;;;;;3.72;1.45;;;23.40;99.90;;;;;;5044730;28;20211;-80
2022/05/18 04:29:56;;;;;;;3.03;1.60;;;23.40;99.90;;;;;;5044958;28;20308;-80
2022/05/18 04:32:23;;;;;;;2.00;1.90;;;23.40;99.90;;;;;;5046534;28;20733;-80
2022/05/18 04:34:51;;;;;;;3.03;1.70;;;23.40;99.90;;;;;;5039842;28;20608;-79
2022/05/18 04:37:19;;;;;;;2.38;1.55;;;23.30;99.90;;;;;;5035184;28;20221;-79
2022/05/18 04:39:46;;;;;;;3.83;1.85;;;23.30;99.90;;;;;;5045852;28;20227;-80
2022/05/18 04:42:14;;;;;;;3.25;1.52;;;23.30;99.90;;;;;;5040930;28;20341;-80
2022/05/18 04:44:42;;;;;;;6.50;1.90;;;23.30;99.90;;;;;;5044702;28;20210;-80
2022/05/18 04:47:10;;;;;;;3.85;2.03;;;23.30;99.90;;;;;;5037191;28;20230;-80
2022/05/18 04:49:37;;;;;;;7.85;2.10;;;23.30;99.90;;;;;;5041648;28;20239;-80
2022/05/18 04:52:07;;;;;;;4.13;1.88;;;23.20;99.90;;;;;;5037904;28;20342;-78
2022/05/18 04:54:34;;;;;;;19.45;2.85;;;23.20;99.90;;;;;;5036743;28;20213;-81
2022/05/18 04:57:01;;;;;;;20.02;2.83;;;23.20;99.90;;;;;;5037692;28;20294;-81
2022/05/18 04:59:28;;;;;;;18.20;3.45;;;23.20;99.90;;;;;;5036466;28;20233;-81
2022/05/18 05:01:56;;;;;;;14.95;2.65;;;23.20;99.90;;;;;;5036010;28;20324;-78
2022/05/18 05:04:24;;;;;;;14.82;3.05;;;23.20;99.90;;;;;;5034648;28;20204;-78
2022/05/18 05:06:51;;;;;;;17.85;2.67;;;23.20;99.90;;;;;;5034515;28;20300;-79
2022/05/18 05:09:18;;;;;;;19.73;3.08;;;23.20;99.90;;;;;;5034766;28;20238;-78
2022/05/18 05:11:44;;;;;;;2.50;1.73;;;23.20;99.90;;;;;;5034852;28;20231;-77
2022/05/18 05:14:11;;;;;;;8.88;2.95;;;23.20;99.90;;;;;;5034040;28;20750;-77
2022/05/18 05:16:38;;;;;;;12.38;2.85;;;23.20;99.90;;;;;;5033813;28;20211;-77
2022/05/18 05:19:05;;;;;;;14.30;2.85;;;23.20;99.90;;;;;;5035176;28;20213;-79
2022/05/18 05:21:35;;;;;;;8.85;2.55;;;23.10;99.90;;;;;;5037859;28;20257;-79
2022/05/18 05:24:02;;;;;;;10.82;3.17;;;23.10;99.90;;;;;;5037277;28;20189;-79
2022/05/18 05:26:29;;;;;;;9.60;2.65;;;23.10;99.90;;;;;;5037419;28;20203;-79
2022/05/18 05:28:56;;;;;;;7.65;2.90;;;23.10;99.90;;;;;;5037642;28;20293;-79
2022/05/18 05:31:23;;;;;;;13.23;2.67;;;23.10;99.90;;;;;;5036818;28;20310;-79
2022/05/18 05:33:50;;;;;;;9.85;3.00;;;23.10;99.90;;;;;;5037326;28;20243;-79
2022/05/18 05:36:17;;;;;;;14.05;3.50;;;23.10;99.90;;;;;;5036850;28;20306;-79
2022/05/18 05:38:45;;;;;;;22.58;3.42;;;23.10;99.90;;;;;;5036786;28;20309;-79
2022/05/18 05:41:12;;;;;;;35.90;4.63;;;23.10;99.90;;;;;;5036764;28;20230;-79
2022/05/18 05:43:40;;;;;;;19.67;3.50;;;23.10;99.90;;;;;;5036540;28;20252;-79
2022/05/18 05:46:10;;;;;;;11.85;3.22;;;23.10;99.90;;;;;;5036544;28;20208;-79
2022/05/18 05:48:38;;;;;;;12.48;3.08;;;23.10;99.90;;;;;;5036175;28;20570;-79
2022/05/18 05:51:05;;;;;;;11.43;3.20;;;23.10;99.90;;;;;;5036069;28;20268;-79
2022/05/18 05:53:32;;;;;;;14.63;3.05;;;23.10;99.90;;;;;;5036127;28;20268;-79
2022/05/18 05:56:01;;;;;;;14.77;3.40;;;23.10;99.90;;;;;;5036126;28;20586;-79
2022/05/18 05:58:32;;;;;;;16.45;4.20;;;23.20;99.90;;;;;;5036136;28;20207;-79
2022/05/18 06:00:59;;;;;;;13.80;3.83;;;23.10;99.90;;;;;;5035570;28;20217;-79
2022/05/18 06:03:27;;;;;;;14.63;3.60;;;23.10;99.90;;;;;;5035850;28;20199;-79
2022/05/18 06:05:56;;;;;;;9.32;3.08;;;23.10;99.90;;;;;;5036250;28;20208;-79
2022/05/18 06:08:23;;;;;;;18.42;3.63;;;23.20;99.90;;;;;;5035466;28;20199;-79
2022/05/18 06:10:50;;;;;;;14.98;2.95;;;23.20;99.90;;;;;;5035151;28;20614;-79
2022/05/18 06:13:18;;;;;;;16.38;3.72;;;23.10;99.90;;;;;;5035824;28;20212;-79
2022/05/18 06:15:47;;;;;;;16.17;4.20;;;23.20;99.90;;;;;;5035843;28;20247;-79
2022/05/18 06:18:15;;;;;;;11.07;3.95;;;23.20;99.90;;;;;;5035519;28;20207;-79
2022/05/18 06:20:42;;;;;;;6.50;3.90;;;23.20;99.90;;;;;;5035220;28;20241;-79
2022/05/18 06:23:10;;;;;;;11.00;2.78;;;23.20;99.90;;;;;;5035526;28;20203;-79
2022/05/18 06:25:38;;;;;;;9.93;3.38;;;23.20;99.90;;;;;;5035452;28;20196;-79
2022/05/18 06:28:06;;;;;;;5.70;3.28;;;23.20;99.90;;;;;;5034802;28;20201;-79
2022/05/18 06:30:35;;;;;;;14.15;3.38;;;23.20;99.90;;;;;;5034994;28;20200;-79
2022/05/18 06:33:02;;;;;;;9.90;2.63;;;23.20;99.90;;;;;;5035208;28;20201;-79
2022/05/18 06:35:29;;;;;;;8.32;2.90;;;23.20;99.90;;;;;;5035235;28;20258;-79
2022/05/18 06:37:57;;;;;;;9.93;3.58;;;23.30;99.90;;;;;;5034883;28;20208;-79
2022/05/18 06:41:21;;;;;;;6.15;2.90;;;23.20;99.90;;;;;;5035153;28;20237;-79
2022/05/18 06:43:12;;;;;;;11.52;2.78;;;23.20;99.90;;;;;;5035654;28;20204;-79
2022/05/18 06:45:40;;;;;;;9.63;3.45;;;23.20;99.90;;;;;;5038538;28;20665;-79
2022/05/18 06:48:07;;;;;;;3.88;2.70;;;23.30;99.90;;;;;;5038772;28;20673;-79
2022/05/18 06:50:34;;;;;;;16.30;3.03;;;23.30;99.90;;;;;;5039101;28;20298;-79
2022/05/18 06:53:00;;;;;;;8.95;2.55;;;23.30;99.90;;;;;;5038489;28;20756;-79
2022/05/18 06:55:27;;;;;;;12.00;3.30;;;23.30;99.90;;;;;;5038589;28;20311;-79
2022/05/18 06:57:54;;;;;;;7.93;2.60;;;23.30;99.90;;;;;;5038749;28;20209;-79
2022/05/18 07:00:22;;;;;;;16.02;3.10;;;23.30;99.90;;;;;;5039201;28;20229;-79
2022/05/18 07:02:50;;;;;;;7.32;2.40;;;23.30;99.90;;;;;;5038689;28;20262;-79
2022/05/18 07:05:18;;;;;;;10.98;2.97;;;23.30;99.90;;;;;;5038913;28;20194;-79
2022/05/18 07:07:44;;;;;;;7.35;2.95;;;23.30;99.90;;;;;;5038803;28;20279;-79
2022/05/18 07:10:12;;;;;;;13.55;3.17;;;23.30;99.90;;;;;;5038999;28;20197;-79
2022/05/18 07:12:39;;;;;;;15.20;2.83;;;23.30;99.90;;;;;;5038477;28;20229;-79
2022/05/18 07:15:07;;;;;;;12.80;3.20;;;23.30;99.90;;;;;;5038870;28;20254;-79
2022/05/18 07:17:34;;;;;;;13.40;3.10;;;23.30;99.90;;;;;;5039144;28;20378;-79
2022/05/18 07:20:03;;;;;;;16.35;3.30;;;23.30;99.90;;;;;;5038779;28;20207;-79
2022/05/18 07:22:30;;;;;;;15.73;3.25;;;23.30;99.90;;;;;;5038909;28;20226;-79
2022/05/18 07:24:57;;;;;;;14.73;2.97;;;23.30;99.90;;;;;;5038959;28;20234;-79
2022/05/18 07:27:24;;;;;;;10.02;2.85;;;23.30;99.90;;;;;;5038624;28;20291;-79
2022/05/18 07:29:51;;;;;;;7.90;3.08;;;23.30;99.90;;;;;;5038623;28;20695;-79
2022/05/18 07:32:18;;;;;;;12.45;2.83;;;23.30;99.90;;;;;;5037949;28;20705;-79
2022/05/18 07:34:47;;;;;;;5.57;2.92;;;23.40;99.90;;;;;;5038320;28;20706;-79
2022/05/18 07:37:18;;;;;;;5.63;2.47;;;23.30;99.90;;;;;;5038246;28;20210;-79
2022/05/18 07:39:45;;;;;;;7.55;2.40;;;23.40;99.90;;;;;;5038321;28;20633;-79
2022/05/18 07:42:12;;;;;;;6.75;2.40;;;23.30;99.90;;;;;;5042975;28;20297;-80
2022/05/18 07:44:39;;;;;;;10.43;2.63;;;23.40;99.90;;;;;;5046612;28;20231;-80
2022/05/18 07:47:07;;;;;;;11.52;2.58;;;23.40;99.90;;;;;;5047209;28;20271;-80
2022/05/18 07:49:36;;;;;;;6.30;2.80;;;23.40;99.90;;;;;;5047906;28;20289;-80
2022/05/18 07:52:03;;;;;;;4.75;2.05;;;23.40;99.90;;;;;;5047071;28;20227;-80
2022/05/18 07:54:32;;;;;;;5.63;3.05;;;23.40;99.90;;;;;;5046669;28;20628;-80
2022/05/18 07:56:59;;;;;;;6.80;2.85;;;23.40;99.90;;;;;;5047299;28;20224;-80
2022/05/18 07:59:26;;;;;;;4.28;2.63;;;23.40;99.90;;;;;;5047112;28;20197;-80
2022/05/18 08:01:52;;;;;;;16.40;3.22;;;23.40;99.90;;;;;;5046352;28;20307;-80
2022/05/18 08:04:19;;;;;;;11.98;2.60;;;23.40;99.90;;;;;;5046654;28;20681;-80
2022/05/18 08:06:46;;;;;;;4.90;2.58;;;23.40;99.90;;;;;;5046776;28;20660;-80
2022/05/18 08:09:13;;;;;;;12.90;2.30;;;23.40;99.90;;;;;;5046721;28;20198;-80
2022/05/18 08:17:10;;;;;;;16.20;3.15;;;23.40;99.90;;;;;;5046875;28;20192;-80
2022/05/18 08:19:37;;;;;;;9.93;2.50;;;23.40;99.90;;;;;;5047052;28;20251;-80
2022/05/18 08:22:05;;;;;;;14.10;2.50;;;23.40;99.90;;;;;;5047037;28;20256;-80
2022/05/18 08:24:31;;;;;;;12.77;2.80;;;23.40;99.90;;;;;;5046988;28;20243;-80
2022/05/18 08:27:00;;;;;;;9.38;2.47;;;23.40;99.90;;;;;;5046795;28;20224;-80
2022/05/18 08:29:26;;;;;;;10.73;2.40;;;23.40;99.90;;;;;;5046801;28;20203;-80
2022/05/18 08:31:53;;;;;;;9.73;2.40;;;23.40;99.90;;;;;;5046649;28;20235;-80
2022/05/18 08:34:20;;;;;;;7.85;2.28;;;23.40;99.90;;;;;;5046976;28;20233;-80
2022/05/18 08:36:47;;;;;;;7.88;2.35;;;23.40;99.90;;;;;;5045940;28;20658;-80
2022/05/18 08:39:14;;;;;;;11.88;2.50;;;23.40;99.90;;;;;;5048324;28;20215;-80
2022/05/18 08:41:44;;;;;;;16.33;2.90;;;23.40;99.90;;;;;;5048459;28;20227;-80
2022/05/18 08:44:27;;;;;;;5.85;2.35;;;23.40;99.90;;;;;;5048563;28;20612;-80
2022/05/18 08:47:08;;;;;;;5.63;2.20;;;23.50;99.90;;;;;;5046834;28;20184;-80
2022/05/18 08:49:42;;;;;;;4.40;1.92;;;23.40;99.90;;;;;;5044540;28;20256;-80
2022/05/18 08:52:38;;;;;;;4.85;2.30;;;23.40;99.90;;;;;;5045277;28;20291;-80
2022/05/18 08:55:29;;;;;;;7.95;2.35;;;23.50;99.90;;;;;;5031811;28;20205;-80
2022/05/18 08:57:59;;;;;;;5.82;2.05;;;23.40;99.90;;;;;;5044419;28;20265;-80
2022/05/18 09:00:33;;;;;;;13.52;2.10;;;23.40;99.90;;;;;;5044563;28;20283;-80
2022/05/18 09:03:05;;;;;;;10.30;2.50;;;23.40;99.90;;;;;;5044987;28;20253;-80
2022/05/18 09:05:37;;;;;;;16.92;2.63;;;23.40;99.90;;;;;;5043838;28;20554;-80
2022/05/18 09:08:08;;;;;;;10.32;2.67;;;23.40;99.90;;;;;;5045137;28;20274;-81
2022/05/18 09:10:39;;;;;;;15.02;2.75;;;23.50;99.90;;;;;;5045970;28;20194;-81
2022/05/18 09:13:06;;;;;;;13.05;3.05;;;23.40;99.90;;;;;;5045030;28;20231;-81
2022/05/18 09:15:39;;;;;;;12.77;2.53;;;23.40;99.90;;;;;;5045108;28;20305;-81
2022/05/18 09:18:22;;;;;;;5.55;2.92;;;23.40;99.90;;;;;;5044942;28;20634;-81
2022/05/18 09:20:53;;;;;;;4.90;1.90;;;23.50;99.90;;;;;;5045013;28;20276;-81
2022/05/18 09:23:41;;;;;;;5.53;2.30;;;23.50;99.90;;;;;;5045538;28;20300;-81
2022/05/18 09:26:23;;;;;;;4.75;2.20;;;23.50;99.90;;;;;;5045730;28;20274;-81
2022/05/18 09:28:53;;;;;;;5.22;1.88;;;23.50;99.90;;;;;;5044921;28;20550;-81
2022/05/18 09:31:53;;;;;;;9.95;2.67;;;23.50;99.90;;;;;;5045886;28;20252;-81
2022/05/18 09:34:36;;;;;;;4.10;2.05;;;23.50;99.90;;;;;;5045500;28;20635;-81
2022/05/18 09:37:26;;;;;;;9.98;1.98;;;23.50;99.90;;;;;;5045808;28;20216;-80
2022/05/18 09:39:58;;;;;;;4.63;2.40;;;23.50;99.90;;;;;;5046095;28;20214;-81
2022/05/18 09:42:31;;;;;;;3.33;1.90;;;23.50;99.90;;;;;;5045631;28;20669;-81
2022/05/18 09:45:04;;;;;;;4.55;2.67;;;23.50;99.90;;;;;;5045936;28;20187;-81
2022/05/18 09:47:37;;;;;;;7.80;1.88;;;23.50;99.90;;;;;;5044746;28;20209;-81
2022/05/18 09:50:08;;;;;;;3.45;1.90;;;23.50;99.90;;;;;;5045320;28;20193;-81
2022/05/18 09:52:37;;;;;;;5.55;1.77;;;23.50;99.90;;;;;;5044902;28;20223;-81
2022/05/18 09:55:09;;;;;;;7.22;2.20;;;23.50;99.90;;;;;;5044761;28;20208;-81
2022/05/18 09:57:41;;;;;;;6.72;1.80;;;23.50;99.90;;;;;;5044515;28;20210;-80
2022/05/18 10:00:12;;;;;;;4.28;2.00;;;23.50;99.90;;;;;;5044207;28;20231;-80
2022/05/18 10:08:14;;;;;;;29.48;3.60;;;23.50;99.90;;;;;;5038653;28;20329;-80
2022/05/18 10:10:42;;;;;;;24.95;4.00;;;23.60;99.90;;;;;;5037193;28;20207;-80
2022/05/18 10:13:13;;;;;;;22.55;2.97;;;23.60;99.90;;;;;;5038134;28;20248;-80
2022/05/18 10:15:42;;;;;;;17.20;3.40;;;23.60;99.90;;;;;;5037483;28;20221;-81
2022/05/18 10:18:30;;;;;;;28.63;2.50;;;23.60;99.90;;;;;;5038549;28;20202;-81
2022/05/18 10:21:07;;;;;;;11.40;2.75;;;23.60;99.90;;;;;;5040263;28;20307;-79
2022/05/18 10:23:39;;;;;;;20.35;2.75;;;23.60;99.90;;;;;;5039876;28;20189;-80
2022/05/18 10:26:11;;;;;;;9.93;2.42;;;23.60;99.90;;;;;;5043085;28;20188;-81
2022/05/18 10:28:43;;;;;;;15.70;2.35;;;23.60;99.90;;;;;;5046098;28;20193;-78
2022/05/18 10:31:28;;;;;;;6.45;2.15;;;23.60;99.90;;;;;;5044616;28;20683;-81
2022/05/18 10:34:13;;;;;;;14.57;2.53;;;23.60;99.90;;;;;;5046097;28;20183;-81
2022/05/18 10:36:46;;;;;;;10.25;2.40;;;23.70;99.90;;;;;;5047466;28;20211;-80
2022/05/18 10:39:28;;;;;;;11.77;2.42;;;23.60;99.90;;;;;;5045922;28;20187;-81
2022/05/18 10:41:56;;;;;;;6.38;2.10;;;23.60;99.90;;;;;;5044828;28;20241;-82
2022/05/18 10:44:28;;;;;;;6.28;2.10;;;23.70;99.90;;;;;;5043294;28;20717;-83
2022/05/18 10:46:56;;;;;;;10.23;2.22;;;23.70;99.90;;;;;;5045398;28;20182;-82
2022/05/18 10:49:31;;;;;;;14.25;2.05;;;23.70;99.90;;;;;;5046832;28;20202;-82
2022/05/18 10:52:12;;;;;;;11.93;2.10;;;23.70;99.90;;;;;;5044808;28;20217;-82
2022/05/18 10:54:40;;;;;;;21.02;2.97;;;23.70;99.90;;;;;;5043876;28;20215;-82
2022/05/18 10:57:14;;;;;;;16.70;3.13;;;23.70;99.90;;;;;;5042468;28;20236;-82
2022/05/18 10:59:49;;;;;;;12.27;2.88;;;23.70;99.90;;;;;;5043628;28;20272;-81
2022/05/18 11:02:27;;;;;;;15.90;3.53;;;23.70;99.90;;;;;;5041260;28;20256;-81
2022/05/18 11:05:01;;;;;;;10.85;2.40;;;23.70;99.90;;;;;;5040534;28;20278;-81
2022/05/18 11:07:31;;;;;;;16.13;2.67;;;23.70;99.90;;;;;;5040197;28;20183;-84
2022/05/18 11:09:58;;;;;;;19.15;3.00;;;23.70;99.90;;;;;;5040789;28;20264;-83
2022/05/18 11:12:36;;;;;;;12.40;2.35;;;23.70;99.90;;;;;;5040593;28;20726;-84
2022/05/18 11:15:08;;;;;;;13.52;2.22;;;23.70;99.90;;;;;;5039689;28;20255;-81
2022/05/18 11:17:46;;;;;;;17.67;2.40;;;23.70;99.90;;;;;;5041436;28;20237;-83
2022/05/18 11:20:27;;;;;;;8.13;2.38;;;23.70;99.90;;;;;;5042000;28;20702;-85
2022/05/18 11:23:16;;;;;;;13.13;2.97;;;23.70;99.90;;;;;;5043081;28;20638;-81
2022/05/18 11:25:51;;;;;;;4.78;1.25;;;23.70;99.90;;;;;;5041073;28;20197;-82
2022/05/18 11:28:38;;;;;;;12.35;1.42;;;23.70;99.90;;;;;;5040447;28;20728;-81
2022/05/18 11:31:40;;;;;;;7.43;1.63;;;23.70;99.90;;;;;;5040190;28;20262;-81
2022/05/18 11:34:21;;;;;;;1.67;1.58;;;23.70;99.90;;;;;;5044319;28;20685;-81
2022/05/18 11:36:59;;;;;;;5.38;1.38;;;23.70;99.90;;;;;;5041802;28;20277;-81
2022/05/18 11:39:39;;;;;;;3.58;0.82;;;23.70;99.90;;;;;;5041806;28;20186;-81
2022/05/18 11:42:21;;;;;;;3.28;0.90;;;23.70;99.90;;;;;;5040923;28;20308;-81
2022/05/18 11:45:04;;;;;;;4.68;0.80;;;23.80;99.90;;;;;;5040902;28;20188;-81
2022/05/18 11:47:57;;;;;;;1.90;0.82;;;23.80;99.90;;;;;;5040230;28;20183;-80
2022/05/18 11:50:35;;;;;;;4.53;0.90;;;23.80;99.90;;;;;;5039767;28;20729;-80
2022/05/18 11:53:20;;;;;;;2.40;0.70;;;23.80;99.90;;;;;;5036664;28;20232;-79
2022/05/18 11:56:00;;;;;;;13.35;1.13;;;23.80;99.90;;;;;;5039107;28;20583;-77
2022/05/18 11:58:47;;;;;;;2.65;0.85;;;23.80;99.90;;;;;;5042055;28;20195;-80
2022/05/18 12:01:23;;;;;;;5.32;1.00;;;23.80;99.90;;;;;;5044704;28;20218;-81
2022/05/18 12:04:18;;;;;;;6.18;0.93;;;23.80;99.90;;;;;;5045278;28;20236;-80
2022/05/18 12:07:04;;;;;;;1.50;0.60;;;23.80;99.90;;;;;;5043966;28;20209;-79
2022/05/18 12:09:53;;;;;;;1.73;0.50;;;23.80;99.90;;;;;;5043398;28;20213;-80
2022/05/18 12:12:32;;;;;;;0.60;0.60;;;23.80;99.90;;;;;;5044326;28;20225;-80
2022/05/18 12:15:08;;;;;;;0.80;0.30;;;23.80;99.90;;;;;;5043868;28;20211;-80
2022/05/18 12:17:43;;;;;;;0.60;0.40;;;23.80;99.90;;;;;;5044754;28;20243;-80
2022/05/18 12:20:16;;;;;;;4.55;0.50;;;23.80;99.90;;;;;;5044479;28;20210;-80
2022/05/18 12:22:49;;;;;;;0.63;0.50;;;23.80;99.90;;;;;;5044772;28;20220;-80
2022/05/18 12:25:21;;;;;;;3.22;0.50;;;23.80;99.90;;;;;;5046631;28;20193;-79
2022/05/18 12:27:51;;;;;;;1.75;0.47;;;23.90;99.90;;;;;;5046097;28;20193;-80
2022/05/18 12:30:23;;;;;;;1.75;0.40;;;23.90;99.90;;;;;;5045786;28;20182;-81
2022/05/18 12:32:52;;;;;;;0.63;0.50;;;23.90;99.90;;;;;;5045154;28;20702;-80
2022/05/18 12:35:26;;;;;;;1.55;0.30;;;23.90;99.90;;;;;;5044727;28;20212;-80
2022/05/18 12:38:05;;;;;;;0.40;0.40;;;23.90;99.90;;;;;;5044300;28;20219;-80
2022/05/18 12:40:46;;;;;;;0.80;0.40;;;24.00;99.90;;;;;;5045054;28;20185;-80
2022/05/18 12:43:17;;;;;;;0.25;0.25;;;23.90;99.90;;;;;;5045422;28;20206;-82
2022/05/18 12:45:47;;;;;;;0.30;0.30;;;24.00;99.90;;;;;;5045254;28;20256;-81
2022/05/18 12:48:21;;;;;;;0.30;0.30;;;24.00;99.90;;;;;;5043448;28;20317;-81
2022/05/18 12:51:09;;;;;;;1.25;0.40;;;24.00;99.90;;;;;;5043169;28;20593;-80
2022/05/18 12:54:00;;;;;;;4.00;0.60;;;24.00;99.90;;;;;;5041723;28;20186;-80
2022/05/18 12:56:51;;;;;;;4.25;0.70;;;24.00;99.90;;;;;;5041357;28;20226;-80
2022/05/18 12:59:21;;;;;;;5.93;0.90;;;24.00;99.90;;;;;;5040354;28;20220;-80
2022/05/18 13:01:53;;;;;;;9.43;0.60;;;24.00;99.90;;;;;;5042737;28;20227;-80
2022/05/18 13:04:41;;;;;;;12.52;0.60;;;24.00;99.90;;;;;;5041244;28;20202;-82
2022/05/18 13:07:28;;;;;;;8.30;0.82;;;24.00;99.90;;;;;;5040368;28;20203;-81
2022/05/18 13:10:06;;;;;;;4.13;0.80;;;24.10;99.90;;;;;;5040581;28;20190;-82
2022/05/18 13:12:49;;;;;;;25.13;2.00;;;24.10;99.90;;;;;;5040459;28;20225;-83
2022/05/18 13:15:53;;;;;;;8.82;1.27;;;24.10;99.90;;;;;;5040651;28;20199;-82
2022/05/18 13:18:26;;;;;;;13.68;1.20;;;24.00;99.90;;;;;;5041829;28;20276;-82
2022/05/18 13:21:00;;;;;;;11.95;1.00;;;24.00;99.90;;;;;;5040681;28;20189;-82
2022/05/18 13:23:42;;;;;;;6.05;1.15;;;24.00;99.90;;;;;;5042036;28;20190;-82